»·PEaware :: SKW3310 KSBP-KOXR

SKW3310 :: KSBP-KOXR

FLIGHT INFORMATION

Flight Status: Arrived
Operator:
SkyWest Airlines
More flights by this operator :: More flights under this callsign
Pilot: Paul K. (16555)
Aircraft: EMBRAER BANDEIRANTE
(E110)
More flights by this aircraft type
Origin: KSBP San Luis Co Regl
United States
Destination: KOXR Oxnard
United States
More flights between these airports :: More routes between these airports
Route: RZS VTU
File this flight plan on PilotEdge
Remarks: TEC route SBAP70
Altitude:
(Current/Filed)
7,000ft
Speed:
(Current/Filed)
200kts
Departed: 04-Aug-18 09:20 PM
Arrived: 04-Aug-18 10:01 PM
Distance/Time
Traveled:
94nm/0:40
Distance/Time
To Go:
Arrived

Flight Plot

Page will automatically refresh every two minutes.


Map Options




Map Legend


Flown Route
Filed Route
Departure Airport
Arrival Airport
Navaid (VOR, NDB)
Fix

Horizontal Profiles

Position Reports

Time Latitude Longitude Heading Altitude Ground
Speed
04-Aug-18 20:59 35.238867 -120.638625 270 216ft 0kts
04-Aug-18 21:00 35.238867 -120.638625 270 216ft 0kts
04-Aug-18 21:01 35.238867 -120.638625 270 216ft 0kts
04-Aug-18 21:02 35.238867 -120.638625 270 216ft 0kts
04-Aug-18 21:03 35.238867 -120.638625 270 216ft 0kts
04-Aug-18 21:04 35.238867 -120.638625 270 216ft 0kts
04-Aug-18 21:05 35.238867 -120.638625 270 216ft 0kts
04-Aug-18 21:06 35.238867 -120.638625 269 216ft 0kts
04-Aug-18 21:07 35.238867 -120.638625 269 216ft 0kts
04-Aug-18 21:08 35.238867 -120.638625 269 216ft 0kts
04-Aug-18 21:09 35.238867 -120.638625 269 216ft 0kts
04-Aug-18 21:10 35.238867 -120.638625 269 216ft 0kts
04-Aug-18 21:11 35.238867 -120.638625 269 216ft 0kts
04-Aug-18 21:12 35.238867 -120.638625 270 216ft 0kts
04-Aug-18 21:13 35.238867 -120.638625 270 216ft 0kts
04-Aug-18 21:14 35.238732 -120.639123 244 216ft 2kts
04-Aug-18 21:15 35.237725 -120.639483 131 216ft 6kts
04-Aug-18 21:16 35.236009 -120.636475 127 216ft 14kts
04-Aug-18 21:17 35.233868 -120.632740 123 216ft 9kts
04-Aug-18 21:18 35.233369 -120.632221 185 216ft 0kts
04-Aug-18 21:19 35.233356 -120.632222 185 216ft 0kts
04-Aug-18 21:20 35.232863 -120.632970 304 216ft 0kts
04-Aug-18 21:21 35.247493 -120.654717 315 849ft 106kts
04-Aug-18 21:22 35.267431 -120.685504 313 1576ft 131kts
04-Aug-18 21:23 35.287525 -120.715932 289 2482ft 121kts
04-Aug-18 21:24 35.275049 -120.755032 204 3038ft 142kts
04-Aug-18 21:25 35.247336 -120.733606 102 3877ft 134kts
04-Aug-18 21:26 35.234814 -120.688057 121 4470ft 141kts
04-Aug-18 21:27 35.214241 -120.649414 129 5215ft 137kts
04-Aug-18 21:28 35.190689 -120.612056 131 6041ft 140kts
04-Aug-18 21:29 35.166463 -120.574764 127 6854ft 141kts
04-Aug-18 21:30 35.139378 -120.532844 129 7027ft 171kts
04-Aug-18 21:31 35.108499 -120.486721 129 7024ft 178kts
04-Aug-18 21:32 35.076186 -120.438929 129 7030ft 187kts
04-Aug-18 21:33 35.044866 -120.387418 124 7028ft 191kts
04-Aug-18 21:34 35.011006 -120.337894 130 7030ft 192kts
04-Aug-18 21:35 34.976752 -120.287822 129 7031ft 193kts
04-Aug-18 21:36 34.942525 -120.237806 129 7031ft 193kts
04-Aug-18 21:37 34.908094 -120.187547 130 7031ft 193kts
04-Aug-18 21:38 34.873696 -120.137820 131 7030ft 193kts
04-Aug-18 21:39 34.838382 -120.088911 133 7030ft 192kts
04-Aug-18 21:40 34.802202 -120.041083 134 7030ft 192kts
04-Aug-18 21:41 34.764400 -119.993353 135 7032ft 200kts
04-Aug-18 21:42 34.724664 -119.945251 137 7041ft 202kts
04-Aug-18 21:43 34.685244 -119.899385 138 7031ft 203kts
04-Aug-18 21:44 34.643666 -119.852830 139 7022ft 204kts
04-Aug-18 21:45 34.601332 -119.807238 140 7013ft 204kts
04-Aug-18 21:46 34.558164 -119.762526 141 7005ft 204kts
04-Aug-18 21:47 34.514591 -119.719127 142 7003ft 203kts
04-Aug-18 21:48 34.470084 -119.676514 143 7003ft 203kts
04-Aug-18 21:49 34.435443 -119.623225 126 7004ft 204kts
04-Aug-18 21:50 34.401664 -119.568024 126 7003ft 204kts
04-Aug-18 21:51 34.369173 -119.511332 124 7005ft 205kts
04-Aug-18 21:52 34.337913 -119.454946 124 6964ft 188kts
04-Aug-18 21:53 34.310044 -119.404205 123 6131ft 179kts
04-Aug-18 21:54 34.282684 -119.354339 124 5227ft 177kts
04-Aug-18 21:55 34.257904 -119.309672 124 4415ft 176kts
04-Aug-18 21:56 34.231725 -119.263509 127 3293ft 151kts
04-Aug-18 21:57 34.220031 -119.221041 76 1951ft 133kts
04-Aug-18 21:58 34.227067 -119.181334 76 1462ft 125kts
04-Aug-18 21:59 34.219580 -119.149039 162 1449ft 122kts
04-Aug-18 22:00 34.200134 -119.163242 276 830ft 108kts
04-Aug-18 22:01 34.200769 -119.196420 271 100ft 88kts
04-Aug-18 22:02 34.200269 -119.211259 228 47ft 4kts
04-Aug-18 22:03 34.200021 -119.211194 124 47ft 0kts
04-Aug-18 22:04 34.199812 -119.208356 91 47ft 16kts
04-Aug-18 22:05 34.198996 -119.206719 182 47ft 0kts
04-Aug-18 22:06 34.198996 -119.206719 182 47ft 0kts
04-Aug-18 22:07 34.198996 -119.206719 182 47ft 0kts
04-Aug-18 22:08 34.198996 -119.206719 182 47ft 0kts
04-Aug-18 22:09 34.198996 -119.206719 182 47ft 0kts
04-Aug-18 22:10 34.198996 -119.206719 182 47ft 0kts
04-Aug-18 22:11 34.198996 -119.206719 182 47ft 0kts
04-Aug-18 22:12 34.198996 -119.206719 182 47ft 0kts
04-Aug-18 22:13 34.198996 -119.206719 182 47ft 0kts
04-Aug-18 22:14 34.198996 -119.206719 182 47ft 0kts
04-Aug-18 22:15 34.198996 -119.206719 182 47ft 0kts
04-Aug-18 22:16 34.198996 -119.206719 182 47ft 0kts

Navigation Log

Ident Type
1. KSBP Airport
2. RZS Navaid
3. VTU Navaid
4. KOXR Airport